Time;durP1;ratioP1;P1;durP2;ratioP2;P2;SDS_P1;SDS_P2;PMS_P1;PMS_P2;Temp;Humidity;BMP_temperature;BMP_pressure;BME280_temperature;BME280_humidity;BME280_pressure;Samples;Min_cycle;Max_cycle;Signal;HPM_P1;HPM_P2
2021/07/03 00:01:08;;;;;;;4.18;1.92;;;;;;;18.32;100.00;94462.03;10443534;28;20029;-74
2021/07/03 00:06:09;;;;;;;4.47;2.10;;;;;;;18.20;100.00;94465.44;10443135;28;20029;-75
2021/07/03 00:11:09;;;;;;;4.15;1.92;;;;;;;18.22;100.00;94468.66;10443404;28;20055;-74
2021/07/03 00:16:10;;;;;;;3.30;2.20;;;;;;;18.23;100.00;94472.94;10443077;28;20040;-74
2021/07/03 00:21:10;;;;;;;3.57;2.43;;;;;;;18.24;100.00;94479.22;10442841;28;20267;-75
2021/07/03 00:26:10;;;;;;;2.80;2.10;;;;;;;18.16;100.00;94480.03;10443311;28;20322;-75
2021/07/03 00:31:11;;;;;;;2.50;2.30;;;;;;;18.06;100.00;94476.56;10442597;28;20608;-74
2021/07/03 00:36:11;;;;;;;2.00;1.90;;;;;;;17.97;100.00;94477.72;10443055;28;20053;-74
2021/07/03 00:41:12;;;;;;;2.90;1.90;;;;;;;17.91;100.00;94482.53;10442967;28;20404;-74
2021/07/03 00:46:13;;;;;;;2.33;1.92;;;;;;;17.85;100.00;94475.66;10444131;28;20280;-74
2021/07/03 00:51:13;;;;;;;1.63;1.52;;;;;;;17.60;100.00;94476.22;10450691;28;20071;-74
2021/07/03 00:56:13;;;;;;;5.25;2.03;;;;;;;17.52;100.00;94477.03;10451692;28;20025;-74
2021/07/03 01:01:14;;;;;;;3.83;2.17;;;;;;;17.42;100.00;94472.72;10451370;28;20086;-74
2021/07/03 01:06:15;;;;;;;2.73;1.83;;;;;;;17.34;100.00;94475.47;10451117;28;21003;-74
2021/07/03 01:11:29;;;;;;;2.83;1.85;;;;;;;17.39;100.00;94480.75;10450840;28;20029;-74
2021/07/03 01:16:29;;;;;;;2.25;2.05;;;;;;;17.32;100.00;94489.38;10450756;28;20476;-74
2021/07/03 01:21:30;;;;;;;3.45;2.40;;;;;;;17.28;100.00;94476.78;10451181;28;20036;-74
2021/07/03 01:26:44;;;;;;;2.03;1.90;;;;;;;17.20;100.00;94481.88;10450106;28;20048;-74
2021/07/03 01:31:47;;;;;;;3.30;2.20;;;;;;;17.13;100.00;94473.41;10449801;28;20104;-74
2021/07/03 01:36:48;;;;;;;2.40;2.20;;;;;;;17.06;100.00;94459.53;10449720;28;20404;-74
2021/07/03 01:41:49;;;;;;;1.90;1.80;;;;;;;16.95;100.00;94463.69;10447730;28;20037;-74
2021/07/03 01:46:51;;;;;;;1.90;1.80;;;;;;;17.00;100.00;94455.41;10448897;28;20029;-75
2021/07/03 01:51:52;;;;;;;4.13;1.80;;;;;;;17.10;100.00;94465.91;10448446;28;20036;-74
2021/07/03 01:56:59;;;;;;;2.78;2.03;;;;;;;16.89;100.00;94453.00;10449221;28;20028;-74
2021/07/03 02:02:02;;;;;;;1.52;1.40;;;;;;;16.92;100.00;94467.84;10447836;28;20029;-74
2021/07/03 02:07:02;;;;;;;2.55;1.50;;;;;;;16.83;100.00;94458.88;10446547;28;20853;-74
2021/07/03 02:12:03;;;;;;;2.55;1.70;;;;;;;16.85;100.00;94449.28;10447833;28;20043;-74
2021/07/03 02:17:04;;;;;;;1.75;1.50;;;;;;;16.88;100.00;94456.00;10446802;28;20032;-74
2021/07/03 02:22:04;;;;;;;3.33;2.10;;;;;;;16.73;100.00;94454.56;10447041;28;20035;-74
2021/07/03 02:27:05;;;;;;;10.65;5.93;;;;;;;16.82;100.00;94447.22;10447580;28;20295;-75
2021/07/03 02:32:05;;;;;;;5.00;3.38;;;;;;;16.87;100.00;94454.41;10447164;28;20453;-74
2021/07/03 02:37:06;;;;;;;2.00;1.80;;;;;;;16.81;100.00;94442.91;10447539;28;20056;-74
2021/07/03 02:42:06;;;;;;;1.93;1.73;;;;;;;16.81;100.00;94452.97;10447207;28;20494;-74
2021/07/03 02:47:07;;;;;;;1.70;1.30;;;;;;;16.79;100.00;94460.66;10446846;28;20311;-75
2021/07/03 02:52:07;;;;;;;1.80;1.40;;;;;;;16.82;100.00;94455.38;10447566;28;20461;-74
2021/07/03 02:57:07;;;;;;;1.77;1.50;;;;;;;16.95;100.00;94460.97;10446693;28;20267;-75
2021/07/03 03:02:08;;;;;;;2.87;1.50;;;;;;;16.90;100.00;94467.38;10446393;28;20276;-73
2021/07/03 03:07:08;;;;;;;4.20;1.60;;;;;;;16.91;100.00;94455.38;10446484;28;20295;-74
2021/07/03 03:12:08;;;;;;;3.73;1.50;;;;;;;17.03;100.00;94465.63;10446680;28;20069;-74
2021/07/03 03:17:09;;;;;;;2.07;1.30;;;;;;;17.06;100.00;94470.41;10445915;28;20025;-74
2021/07/03 03:22:09;;;;;;;2.83;1.57;;;;;;;16.80;100.00;94483.94;10444073;28;20271;-74
2021/07/03 03:27:10;;;;;;;2.30;1.77;;;;;;;16.92;100.00;94487.63;10444762;28;20025;-74
2021/07/03 03:32:10;;;;;;;3.30;2.20;;;;;;;16.77;100.00;94490.78;10444681;28;20276;-75
2021/07/03 03:37:10;;;;;;;4.00;1.23;;;;;;;16.75;100.00;94493.84;10444674;28;20087;-74
2021/07/03 03:42:11;;;;;;;2.63;1.77;;;;;;;16.65;100.00;94488.72;10445166;28;20029;-73
2021/07/03 03:47:11;;;;;;;1.53;1.40;;;;;;;16.85;100.00;94494.66;10443561;28;20036;-75
2021/07/03 03:52:12;;;;;;;1.83;1.60;;;;;;;17.02;100.00;94489.25;10443588;28;20065;-74
2021/07/03 03:57:22;;;;;;;4.32;1.90;;;;;;;16.97;100.00;94489.41;10444540;28;20025;-76
2021/07/03 04:02:22;;;;;;;2.60;1.77;;;;;;;17.15;100.00;94495.63;10447059;28;20032;-76
2021/07/03 04:07:23;;;;;;;2.42;1.55;;;;;;;17.26;100.00;94496.09;10463942;28;20023;-76
2021/07/03 04:12:24;;;;;;;8.32;2.35;;;;;;;17.41;100.00;94500.22;10446687;28;20044;-76
2021/07/03 04:17:25;;;;;;;7.43;1.92;;;;;;;17.46;100.00;94499.28;10443610;28;20032;-76
2021/07/03 04:22:26;;;;;;;4.18;2.15;;;;;;;17.88;100.00;94513.84;10443614;28;20036;-76
2021/07/03 04:27:26;;;;;;;3.83;1.92;;;;;;;18.31;100.00;94508.59;10461352;28;20029;-76
2021/07/03 04:32:27;;;;;;;4.13;2.23;;;;;;;18.71;100.00;94514.47;10445589;28;20041;-76
2021/07/03 04:37:28;;;;;;;4.57;2.10;;;;;;;19.41;100.00;94521.31;10445615;28;20378;-76
2021/07/03 04:42:28;;;;;;;5.37;2.10;;;;;;;19.86;100.00;94520.59;10444079;28;20043;-76
2021/07/03 04:47:29;;;;;;;6.23;2.60;;;;;;;20.35;99.78;94516.34;10443811;28;20052;-76
2021/07/03 04:52:29;;;;;;;7.40;1.83;;;;;;;21.19;95.33;94521.25;10458602;28;20479;-76
2021/07/03 04:57:29;;;;;;;2.50;2.03;;;;;;;21.59;88.16;94525.13;10442381;28;20287;-76
2021/07/03 05:02:30;;;;;;;5.23;1.90;;;;;;;21.91;82.70;94527.91;10437619;28;20043;-76
2021/07/03 05:07:30;;;;;;;4.97;1.70;;;;;;;22.32;79.18;94521.16;10442990;28;20824;-76
2021/07/03 05:12:30;;;;;;;7.03;2.60;;;;;;;22.57;77.50;94534.69;10440108;28;20055;-76
2021/07/03 05:17:31;;;;;;;5.10;2.63;;;;;;;22.79;74.67;94533.25;10441659;28;20036;-76
2021/07/03 05:22:31;;;;;;;3.75;2.30;;;;;;;23.10;71.09;94528.84;10443210;28;20661;-76
2021/07/03 05:27:32;;;;;;;2.30;2.10;;;;;;;22.86;70.20;94529.88;10441404;28;20036;-76
2021/07/03 05:32:32;;;;;;;2.60;2.10;;;;;;;23.20;68.29;94527.53;10430519;28;20384;-76
2021/07/03 05:37:33;;;;;;;4.55;2.10;;;;;;;23.67;62.56;94529.25;10443926;28;20275;-76
2021/07/03 05:42:33;;;;;;;5.23;2.10;;;;;;;23.84;61.10;94527.22;10410413;28;20030;-76
2021/07/03 05:47:33;;;;;;;5.63;2.40;;;;;;;23.71;62.97;94521.88;10409515;28;20030;-76
2021/07/03 05:52:34;;;;;;;3.30;2.37;;;;;;;24.25;58.87;94522.09;10432624;28;20789;-77
2021/07/03 05:57:34;;;;;;;10.98;2.70;;;;;;;24.36;55.30;94525.84;10450724;28;20263;-76
2021/07/03 06:02:35;;;;;;;7.13;2.13;;;;;;;23.99;59.13;94531.06;10451228;28;20024;-76
2021/07/03 06:07:35;;;;;;;7.40;2.47;;;;;;;25.02;56.26;94530.38;10449567;28;20024;-76
2021/07/03 06:12:35;;;;;;;9.73;2.13;;;;;;;25.89;51.34;94535.06;10448065;28;20289;-76
2021/07/03 06:17:36;;;;;;;3.13;1.90;;;;;;;25.37;54.21;94534.84;10448186;28;20025;-76
2021/07/03 06:22:37;;;;;;;4.25;2.15;;;;;;;25.76;49.81;94529.81;10445077;28;20232;-76
2021/07/03 06:27:38;;;;;;;4.93;1.98;;;;;;;25.74;52.40;94523.09;10447285;28;20037;-75
2021/07/03 06:32:39;;;;;;;7.45;2.08;;;;;;;26.33;49.10;94526.09;10444275;28;20404;-75
2021/07/03 06:37:40;;;;;;;5.93;2.10;;;;;;;26.55;48.46;94524.28;10447438;28;20446;-76
2021/07/03 06:42:40;;;;;;;8.30;1.83;;;;;;;27.79;44.83;94521.88;10447016;28;20028;-76
2021/07/03 06:47:41;;;;;;;4.13;2.28;;;;;;;25.99;49.13;94526.09;10447419;28;20487;-76
2021/07/03 06:52:41;;;;;;;4.50;2.20;;;;;;;24.43;58.36;94530.63;10443282;28;20416;-76
2021/07/03 06:57:42;;;;;;;5.80;2.30;;;;;;;24.89;56.92;94536.13;10440054;28;20274;-77
2021/07/03 07:02:42;;;;;;;3.80;1.85;;;;;;;26.60;50.00;94531.44;10446519;28;20279;-76
2021/07/03 07:07:42;;;;;;;3.60;2.17;;;;;;;23.88;55.42;94539.88;10446770;28;20057;-77
2021/07/03 07:12:43;;;;;;;11.83;2.50;;;;;;;22.73;69.45;94537.44;10445942;28;20033;-77
2021/07/03 07:17:43;;;;;;;2.30;2.10;;;;;;;23.53;62.53;94526.25;10445656;28;20094;-78
2021/07/03 07:22:44;;;;;;;8.18;2.30;;;;;;;23.21;64.81;94538.13;10461041;28;21129;-77
2021/07/03 07:27:44;;;;;;;4.27;2.40;;;;;;;23.54;62.77;94536.03;10430990;28;20102;-76
2021/07/03 07:32:46;;;;;;;6.10;2.70;;;;;;;21.89;72.30;94543.91;10423462;28;20029;-77
2021/07/03 07:37:50;;;;;;;4.55;2.30;;;;;;;21.64;73.13;94531.16;10445388;28;20382;-78
2021/07/03 07:42:51;;;;;;;5.38;3.22;;;;;;;20.59;83.72;94527.22;10445746;28;20029;-78
2021/07/03 07:47:51;;;;;;;4.00;2.50;;;;;;;21.67;80.90;94535.09;10446213;28;20404;-78
2021/07/03 07:52:51;;;;;;;12.00;3.23;;;;;;;23.99;62.26;94533.81;10443837;28;20283;-78
2021/07/03 07:57:52;;;;;;;4.15;2.20;;;;;;;25.41;54.64;94536.47;10445961;28;20040;-78
2021/07/03 08:02:52;;;;;;;2.50;1.98;;;;;;;24.93;55.68;94535.38;10444971;28;20389;-78
2021/07/03 08:07:53;;;;;;;4.50;1.90;;;;;;;24.02;57.83;94544.84;10444234;28;20139;-78
2021/07/03 08:12:55;;;;;;;6.67;2.43;;;;;;;26.25;51.26;94530.72;10460470;28;20274;-78
2021/07/03 08:17:55;;;;;;;3.85;1.65;;;;;;;28.77;42.92;94541.44;10403978;28;20509;-78
2021/07/03 08:22:56;;;;;;;4.33;1.27;;;;;;;30.29;38.26;94519.63;10428161;28;20170;-78
2021/07/03 08:27:56;;;;;;;7.97;1.80;;;;;;;28.48;39.75;94539.44;10429486;28;20031;-77
2021/07/03 08:32:57;;;;;;;2.67;1.48;;;;;;;26.59;45.93;94536.13;10422346;28;20041;-75
2021/07/03 08:37:57;;;;;;;11.05;1.70;;;;;;;28.71;43.12;94535.53;10442053;28;20047;-75
2021/07/03 08:42:58;;;;;;;6.70;1.73;;;;;;;29.82;39.78;94528.16;10444826;28;20041;-74
2021/07/03 08:47:59;;;;;;;4.47;1.40;;;;;;;28.95;39.15;94531.16;10443599;28;20060;-75
2021/07/03 08:52:59;;;;;;;4.80;1.60;;;;;;;27.94;41.92;94533.78;10443887;28;20119;-75
2021/07/03 08:58:04;;;;;;;3.97;1.50;;;;;;;28.27;43.49;94528.34;10443692;28;20419;-78
2021/07/03 09:03:13;;;;;;;4.97;1.85;;;;;;;27.92;42.43;94530.63;10444088;28;20056;-77
2021/07/03 09:08:14;;;;;;;13.88;7.80;;;;;;;30.25;40.83;94518.88;10446366;28;20017;-77
2021/07/03 09:13:18;;;;;;;2.53;1.80;;;;;;;31.73;36.54;94526.69;10447027;28;20032;-76
2021/07/03 09:18:19;;;;;;;1.58;1.27;;;;;;;31.36;35.20;94515.19;10438602;28;20025;-77
2021/07/03 09:23:38;;;;;;;2.22;1.60;;;;;;;31.81;36.07;94516.28;10426984;28;20458;-77
2021/07/03 09:28:44;;;;;;;3.05;1.60;;;;;;;31.53;35.25;94507.06;10423902;28;20021;-76
2021/07/03 09:33:51;;;;;;;3.43;1.53;;;;;;;32.14;34.96;94517.47;10428138;28;20080;-76
2021/07/03 09:38:54;;;;;;;6.28;2.20;;;;;;;29.41;39.09;94515.66;10440099;28;20515;-76
2021/07/03 09:43:55;;;;;;;3.42;2.58;;;;;;;27.61;41.06;94521.03;10429573;28;20031;-76
2021/07/03 09:49:17;;;;;;;3.15;2.28;;;;;;;28.07;42.13;94523.19;10433616;28;20025;-76
2021/07/03 09:54:21;;;;;;;4.43;3.05;;;;;;;27.78;42.81;94516.75;10426528;28;20041;-75
2021/07/03 09:59:22;;;;;;;4.32;2.40;;;;;;;29.62;39.87;94491.84;10424488;28;20025;-75
2021/07/03 10:04:22;;;;;;;2.28;2.08;;;;;;;30.48;36.12;94490.63;10436500;28;20020;-77
2021/07/03 10:09:29;;;;;;;3.53;2.50;;;;;;;32.10;34.49;94488.88;10432794;28;20083;-76
2021/07/03 10:14:36;;;;;;;4.35;2.50;;;;;;;31.52;35.29;94489.63;10429178;28;20104;-76
2021/07/03 10:19:39;;;;;;;3.92;2.03;;;;;;;32.66;33.32;94482.09;10439871;28;20856;-77
2021/07/03 10:24:50;;;;;;;3.47;2.03;;;;;;;33.33;32.58;94484.16;10433466;28;20550;-76
2021/07/03 10:29:53;;;;;;;7.60;1.90;;;;;;;34.37;30.73;94486.78;10430251;28;20025;-77
2021/07/03 10:34:53;;;;;;;4.18;2.08;;;;;;;34.50;31.22;94487.66;10423131;28;20040;-77
2021/07/03 10:39:54;;;;;;;3.78;2.55;;;;;;;30.57;34.75;94481.81;10430440;28;20029;-76
2021/07/03 10:45:06;;;;;;;3.08;2.80;;;;;;;28.49;40.20;94484.94;10429787;28;20025;-76
2021/07/03 10:50:22;;;;;;;8.90;4.07;;;;;;;27.49;41.26;94475.28;10435037;28;20115;-77
2021/07/03 10:55:36;;;;;;;6.70;3.45;;;;;;;25.19;44.40;94463.06;10431856;28;20029;-76
2021/07/03 11:00:37;;;;;;;4.93;3.20;;;;;;;25.88;46.23;94451.66;10445543;28;20022;-76
2021/07/03 11:05:37;;;;;;;6.20;2.90;;;;;;;26.36;44.14;94441.84;10437817;28;20460;-77
2021/07/03 11:10:39;;;;;;;4.40;3.80;;;;;;;24.45;51.30;94447.84;10450005;28;20035;-77
2021/07/03 11:15:40;;;;;;;6.28;4.03;;;;;;;25.03;54.08;94449.50;10449936;28;20017;-77
2021/07/03 11:20:41;;;;;;;4.55;4.07;;;;;;;25.10;52.65;94438.56;10448688;28;20028;-77
2021/07/03 11:25:46;;;;;;;5.25;4.10;;;;;;;24.85;54.36;94430.81;10447215;28;20032;-77
2021/07/03 11:30:49;;;;;;;3.85;3.45;;;;;;;25.45;46.04;94437.44;10437094;28;20415;-75
2021/07/03 11:35:50;;;;;;;4.03;3.63;;;;;;;24.62;51.31;94446.59;10438766;28;20053;-75
2021/07/03 11:40:52;;;;;;;4.53;4.13;;;;;;;23.50;59.14;94441.94;10437133;28;20040;-75
2021/07/03 11:45:54;;;;;;;3.95;3.55;;;;;;;24.00;56.85;94440.13;10406856;28;20040;-75
2021/07/03 11:51:02;;;;;;;5.07;4.30;;;;;;;24.39;55.03;94433.66;10456045;28;20044;-75
2021/07/03 11:56:03;;;;;;;6.22;3.70;;;;;;;23.72;51.59;94451.34;10416466;28;20540;-75
2021/07/03 12:01:09;;;;;;;3.92;3.53;;;;;;;23.86;52.18;94442.56;10448384;28;20051;-75
2021/07/03 12:06:10;;;;;;;8.23;4.93;;;;;;;22.89;59.21;94455.19;10447769;28;20116;-75
2021/07/03 12:11:11;;;;;;;5.30;4.80;;;;;;;22.78;62.46;94454.94;10448102;28;20037;-75
2021/07/03 12:16:12;;;;;;;5.53;4.80;;;;;;;22.83;73.41;94440.19;10447833;28;20048;-75
2021/07/03 12:21:19;;;;;;;6.40;5.38;;;;;;;22.60;65.08;94443.59;10447217;28;20124;-75
2021/07/03 12:26:21;;;;;;;6.75;5.25;;;;;;;23.28;58.19;94444.25;10446942;28;20472;-75
2021/07/03 12:31:45;;;;;;;7.22;5.50;;;;;;;23.65;53.38;94429.25;10448019;28;20095;-75
2021/07/03 12:36:48;;;;;;;8.75;4.90;;;;;;;23.23;55.54;94414.38;10443798;28;20049;-75
2021/07/03 12:42:02;;;;;;;7.80;5.20;;;;;;;23.09;57.52;94422.31;10448163;28;20385;-75
2021/07/03 12:47:05;;;;;;;7.70;5.75;;;;;;;23.45;57.10;94425.78;10459188;28;20480;-75
2021/07/03 12:52:08;;;;;;;8.05;5.30;;;;;;;23.75;52.13;94427.88;10460778;28;20029;-75
2021/07/03 12:57:09;;;;;;;7.85;5.00;;;;;;;23.40;51.76;94428.81;10460447;28;20094;-75
2021/07/03 13:02:12;;;;;;;5.22;4.53;;;;;;;23.34;53.53;94426.34;10461202;28;20032;-75
2021/07/03 13:07:17;;;;;;;8.25;4.38;;;;;;;22.99;52.99;94423.69;10460614;28;20120;-75
2021/07/03 13:12:17;;;;;;;6.35;5.10;;;;;;;24.12;51.37;94425.38;10460618;28;20036;-75
2021/07/03 13:17:18;;;;;;;12.53;5.20;;;;;;;24.33;49.24;94424.94;10459093;28;20021;-75
2021/07/03 13:22:18;;;;;;;4.00;3.40;;;;;;;24.02;47.80;94420.53;10459422;28;20124;-76
2021/07/03 13:27:19;;;;;;;6.30;4.87;;;;;;;24.47;50.69;94410.63;10450388;28;20370;-75
2021/07/03 13:32:19;;;;;;;5.28;3.92;;;;;;;24.32;49.13;94419.81;10460401;28;20039;-75
2021/07/03 13:37:19;;;;;;;4.95;3.50;;;;;;;24.58;46.58;94421.75;10460376;28;20103;-75
2021/07/03 13:42:22;;;;;;;5.00;3.23;;;;;;;24.73;48.46;94414.56;10459115;28;20036;-75
2021/07/03 13:47:23;;;;;;;9.10;3.65;;;;;;;23.91;54.12;94408.59;10451282;28;20826;-75
2021/07/03 13:52:24;;;;;;;4.65;3.20;;;;;;;24.09;50.76;94415.16;10453318;28;20035;-75
2021/07/03 13:57:25;;;;;;;4.93;3.58;;;;;;;24.26;52.40;94418.56;10438047;28;20022;-75
2021/07/03 14:02:25;;;;;;;6.85;3.03;;;;;;;24.23;48.49;94431.06;10435486;28;20025;-76
2021/07/03 14:07:26;;;;;;;4.73;2.70;;;;;;;24.53;46.17;94422.88;10449292;28;20856;-75
2021/07/03 14:12:26;;;;;;;3.97;2.72;;;;;;;24.06;48.01;94427.66;10452279;28;20273;-75
2021/07/03 14:17:28;;;;;;;6.23;2.90;;;;;;;23.92;51.50;94432.09;10452651;28;20399;-75
2021/07/03 14:22:29;;;;;;;5.53;2.90;;;;;;;23.61;51.71;94420.16;10452110;28;20060;-75
2021/07/03 14:27:29;;;;;;;3.40;2.60;;;;;;;23.69;51.84;94419.97;10436774;28;20103;-76
2021/07/03 14:32:30;;;;;;;4.23;3.20;;;;;;;24.02;52.92;94428.75;10439497;28;20376;-76
2021/07/03 14:37:30;;;;;;;3.00;2.67;;;;;;;24.14;52.60;94419.53;10451820;28;20481;-77
2021/07/03 14:42:31;;;;;;;3.60;2.90;;;;;;;23.86;52.97;94426.09;10432730;28;20095;-76
2021/07/03 14:47:31;;;;;;;3.43;3.13;;;;;;;23.26;55.77;94429.31;10432030;28;20025;-75
2021/07/03 14:52:32;;;;;;;6.93;2.90;;;;;;;22.94;55.71;94434.91;10450869;28;20408;-74
2021/07/03 14:57:32;;;;;;;5.25;3.25;;;;;;;22.96;57.13;94424.41;10449995;28;20290;-74
2021/07/03 15:02:32;;;;;;;3.47;3.17;;;;;;;23.08;58.15;94428.94;10450215;28;20046;-74
2021/07/03 15:07:33;;;;;;;5.70;3.23;;;;;;;23.31;57.46;94429.81;10451302;28;20029;-80
2021/07/03 15:12:33;;;;;;;8.97;2.97;;;;;;;23.21;58.13;94435.91;10449495;28;20557;-79
2021/07/03 15:17:33;;;;;;;5.25;2.80;;;;;;;23.12;56.87;94414.19;10439077;28;20385;-79
2021/07/03 15:22:34;;;;;;;10.83;2.80;;;;;;;22.62;58.89;94427.59;10447440;28;20040;-79
2021/07/03 15:27:38;;;;;;;4.70;3.47;;;;;;;22.64;60.71;94414.34;10437816;28;20320;-78
2021/07/03 15:32:42;;;;;;;9.00;4.00;;;;;;;22.52;59.93;94412.53;10444818;28;20278;-79
2021/07/03 15:37:43;;;;;;;4.95;4.05;;;;;;;22.42;61.55;94406.81;10449797;28;20036;-79
2021/07/03 15:42:43;;;;;;;7.87;3.90;;;;;;;22.23;62.42;94407.50;10446705;28;20032;-75
2021/07/03 15:47:44;;;;;;;6.20;4.05;;;;;;;22.21;60.38;94415.28;10450465;28;20294;-74
2021/07/03 15:52:44;;;;;;;7.28;4.93;;;;;;;22.32;59.42;94417.13;10450345;28;20412;-74
2021/07/03 15:57:45;;;;;;;3.90;3.50;;;;;;;22.23;63.79;94410.25;10451002;28;20017;-74
2021/07/03 16:02:46;;;;;;;5.75;3.75;;;;;;;21.98;65.34;94415.94;10449991;28;20028;-74
2021/07/03 16:07:46;;;;;;;4.50;3.70;;;;;;;21.99;62.40;94417.50;10448094;28;20036;-74
2021/07/03 16:12:47;;;;;;;3.78;3.38;;;;;;;22.10;62.85;94425.97;10448987;28;20285;-74
2021/07/03 16:17:51;;;;;;;3.43;3.13;;;;;;;22.16;64.52;94427.31;10464201;28;20043;-74
2021/07/03 16:22:51;;;;;;;3.42;2.88;;;;;;;21.68;63.15;94433.59;10448455;28;20035;-74
2021/07/03 16:27:52;;;;;;;3.97;3.50;;;;;;;21.84;67.30;94439.06;10435613;28;20059;-74
2021/07/03 16:32:53;;;;;;;4.63;3.65;;;;;;;21.63;68.94;94439.31;10409688;28;20060;-77
2021/07/03 16:37:53;;;;;;;8.90;4.00;;;;;;;21.45;73.70;94440.75;10409178;28;20034;-77
2021/07/03 16:42:54;;;;;;;5.67;4.20;;;;;;;21.40;74.14;94449.19;10408925;28;20037;-77
2021/07/03 16:47:54;;;;;;;7.10;3.87;;;;;;;21.64;75.08;94448.28;10407276;28;20300;-77
2021/07/03 16:52:54;;;;;;;5.03;4.03;;;;;;;21.68;75.75;94449.19;10448503;28;20028;-77
2021/07/03 16:57:55;;;;;;;7.73;3.80;;;;;;;21.73;76.91;94448.16;10448100;28;20113;-77
2021/07/03 17:02:55;;;;;;;5.50;3.93;;;;;;;21.34;77.35;94443.97;10448648;28;20404;-77
2021/07/03 17:07:55;;;;;;;6.47;4.40;;;;;;;21.11;80.88;94451.94;10449150;28;20029;-77
2021/07/03 17:12:56;;;;;;;8.32;3.75;;;;;;;21.13;79.63;94446.13;10448594;28;20263;-78
2021/07/03 17:17:57;;;;;;;5.68;3.80;;;;;;;21.15;81.30;94449.31;10444787;28;20025;-74
2021/07/03 17:22:57;;;;;;;8.63;4.73;;;;;;;20.69;84.18;94449.53;10446305;28;20029;-74
2021/07/03 17:27:57;;;;;;;5.70;4.90;;;;;;;20.66;87.90;94442.03;10446438;28;20828;-74
2021/07/03 17:32:58;;;;;;;6.67;4.33;;;;;;;20.61;88.69;94443.06;10454372;28;20057;-77
2021/07/03 17:37:58;;;;;;;5.93;4.80;;;;;;;20.42;89.75;94440.13;10455904;28;20048;-78
2021/07/03 17:42:58;;;;;;;6.27;5.17;;;;;;;20.45;91.25;94442.94;10454091;28;20040;-77
2021/07/03 17:47:59;;;;;;;4.67;4.00;;;;;;;20.26;91.14;94457.22;10470129;28;20029;-77
2021/07/03 17:53:00;;;;;;;6.15;4.38;;;;;;;20.02;94.82;94460.72;10455923;28;20097;-77
2021/07/03 17:58:01;;;;;;;8.63;4.85;;;;;;;20.03;97.05;94469.69;10456041;28;20063;-78
2021/07/03 18:03:02;;;;;;;4.82;4.32;;;;;;;19.96;96.57;94473.00;10454862;28;20119;-78
2021/07/03 18:08:03;;;;;;;6.43;4.25;;;;;;;19.72;100.00;94473.72;10455720;28;20484;-78
2021/07/03 18:13:03;;;;;;;6.40;5.05;;;;;;;19.57;100.00;94475.16;10453110;28;20488;-76
2021/07/03 18:18:03;;;;;;;5.83;5.27;;;;;;;19.28;100.00;94482.31;10452138;28;20025;-75
2021/07/03 18:23:04;;;;;;;6.40;4.72;;;;;;;19.21;100.00;94482.84;10431274;28;20025;-75
2021/07/03 18:28:05;;;;;;;6.77;5.47;;;;;;;19.30;100.00;94499.94;10409373;28;20090;-74
2021/07/03 18:33:05;;;;;;;5.80;4.57;;;;;;;19.33;100.00;94511.31;10434122;28;20045;-74
2021/07/03 18:38:06;;;;;;;5.20;4.60;;;;;;;19.13;100.00;94509.06;10427992;28;20025;-74
2021/07/03 18:43:06;;;;;;;5.72;4.57;;;;;;;19.09;100.00;94527.19;10425813;28;20779;-74
2021/07/03 18:48:07;;;;;;;6.82;4.55;;;;;;;19.02;100.00;94539.75;10429229;28;20033;-75
2021/07/03 18:53:07;;;;;;;6.30;4.07;;;;;;;18.99;100.00;94540.41;10432000;28;20056;-76
2021/07/03 18:58:09;;;;;;;7.53;4.68;;;;;;;18.97;100.00;94554.34;10449930;28;20515;-75
2021/07/03 19:03:10;;;;;;;8.95;4.97;;;;;;;19.04;100.00;94568.25;10439784;28;20186;-73
2021/07/03 19:08:10;;;;;;;4.97;4.25;;;;;;;18.90;100.00;94559.53;10425822;28;20041;-73
2021/07/03 19:13:10;;;;;;;6.83;4.83;;;;;;;19.01;100.00;94568.91;10432765;28;20400;-74
2021/07/03 19:18:12;;;;;;;8.17;4.33;;;;;;;18.90;100.00;94576.66;10426991;28;20033;-73
2021/07/03 19:23:13;;;;;;;5.28;4.18;;;;;;;18.91;100.00;94578.25;10427842;28;20025;-73
2021/07/03 19:28:14;;;;;;;9.48;4.55;;;;;;;18.78;100.00;94584.72;10440901;28;20405;-74
2021/07/03 19:33:14;;;;;;;4.68;3.80;;;;;;;19.09;100.00;94589.06;10410487;28;20049;-73
2021/07/03 19:38:15;;;;;;;7.60;4.73;;;;;;;18.90;100.00;94587.56;10409494;28;20033;-73
2021/07/03 19:43:15;;;;;;;6.87;4.10;;;;;;;18.84;100.00;94590.75;10409300;28;20285;-73
2021/07/03 19:48:16;;;;;;;6.63;4.13;;;;;;;18.77;100.00;94596.75;10406087;28;20798;-73
2021/07/03 19:53:21;;;;;;;5.18;4.05;;;;;;;18.70;100.00;94585.56;10421818;28;20455;-73
2021/07/03 19:58:22;;;;;;;4.63;3.85;;;;;;;18.56;100.00;94575.72;10445205;28;20032;-74
2021/07/03 20:03:23;;;;;;;4.63;3.88;;;;;;;18.51;100.00;94578.59;10445808;28;20033;-73
2021/07/03 20:08:24;;;;;;;4.70;3.88;;;;;;;18.48;100.00;94581.19;10442884;28;20040;-73
2021/07/03 20:13:24;;;;;;;6.47;3.80;;;;;;;18.44;100.00;94581.03;10422512;28;20183;-73
2021/07/03 20:18:24;;;;;;;6.63;4.13;;;;;;;18.53;100.00;94579.09;10439215;28;20469;-73
2021/07/03 20:23:25;;;;;;;5.17;3.47;;;;;;;18.45;100.00;94567.09;10443618;28;20037;-73
2021/07/03 20:28:26;;;;;;;5.03;4.00;;;;;;;18.43;100.00;94561.22;10437695;28;20295;-73
2021/07/03 20:33:26;;;;;;;5.90;3.70;;;;;;;18.41;100.00;94554.50;10431984;28;20101;-73
2021/07/03 20:38:27;;;;;;;4.72;2.95;;;;;;;18.42;100.00;94562.31;10414946;28;20029;-74
2021/07/03 20:43:27;;;;;;;3.63;3.33;;;;;;;18.49;100.00;94567.25;10438365;28;20047;-74
2021/07/03 20:48:27;;;;;;;4.87;4.17;;;;;;;18.44;100.00;94564.72;10444208;28;20094;-74
2021/07/03 20:53:28;;;;;;;3.65;3.35;;;;;;;18.34;100.00;94559.66;10445501;28;20287;-75
2021/07/03 20:58:28;;;;;;;4.45;3.97;;;;;;;18.32;100.00;94561.88;10445335;28;20028;-75
2021/07/03 21:03:29;;;;;;;3.67;3.38;;;;;;;18.37;100.00;94551.63;10446181;28;20029;-75
2021/07/03 21:08:29;;;;;;;4.13;3.70;;;;;;;18.27;100.00;94550.06;10453803;28;20816;-75
2021/07/03 21:13:30;;;;;;;4.00;3.67;;;;;;;18.26;100.00;94548.47;10452895;28;20275;-75
2021/07/03 21:18:30;;;;;;;6.10;4.67;;;;;;;18.21;100.00;94543.22;10451699;28;20112;-75
2021/07/03 21:23:32;;;;;;;4.37;3.97;;;;;;;18.27;100.00;94539.19;10452418;28;20268;-76
2021/07/03 21:28:33;;;;;;;4.57;4.15;;;;;;;18.24;100.00;94545.28;10432307;28;20030;-75
2021/07/03 21:33:33;;;;;;;4.70;3.80;;;;;;;18.20;100.00;94541.63;10410847;28;20065;-75
2021/07/03 21:38:34;;;;;;;4.80;3.67;;;;;;;18.24;100.00;94544.50;10441883;28;20797;-75
2021/07/03 21:43:34;;;;;;;4.18;3.40;;;;;;;18.27;100.00;94539.19;10451919;28;20047;-75
2021/07/03 21:48:35;;;;;;;5.30;4.10;;;;;;;18.33;100.00;94545.22;10455937;28;20040;-75
2021/07/03 21:53:36;;;;;;;5.23;4.03;;;;;;;18.39;100.00;94538.50;10455892;28;20028;-75
2021/07/03 21:58:37;;;;;;;4.95;3.22;;;;;;;18.44;100.00;94541.00;10454844;28;20404;-75
2021/07/03 22:03:38;;;;;;;7.10;3.83;;;;;;;18.35;100.00;94539.47;10455081;28;20094;-75
2021/07/03 22:08:38;;;;;;;6.23;3.30;;;;;;;18.02;100.00;94540.88;10455066;28;20086;-75
2021/07/03 22:13:38;;;;;;;6.83;4.43;;;;;;;17.93;100.00;94535.47;10454031;28;20036;-75
2021/07/03 22:18:39;;;;;;;7.10;4.47;;;;;;;17.89;100.00;94534.50;10453226;28;20029;-75
2021/07/03 22:23:40;;;;;;;6.50;4.35;;;;;;;17.75;100.00;94529.25;10453262;28;20029;-75
2021/07/03 22:28:40;;;;;;;4.40;3.33;;;;;;;17.82;100.00;94533.38;10451508;28;20037;-74
2021/07/03 22:33:43;;;;;;;7.47;3.80;;;;;;;17.75;100.00;94531.97;10452756;28;20081;-74
2021/07/03 22:38:46;;;;;;;3.72;3.20;;;;;;;17.72;100.00;94529.09;10453878;28;20408;-74
2021/07/03 22:43:47;;;;;;;4.53;3.22;;;;;;;17.86;100.00;94527.00;10452222;28;20028;-74
2021/07/03 22:48:47;;;;;;;4.53;3.53;;;;;;;17.79;100.00;94526.69;10449414;28;20021;-74
2021/07/03 22:53:48;;;;;;;4.43;3.23;;;;;;;17.83;100.00;94524.91;10450059;28;20801;-74
2021/07/03 22:58:49;;;;;;;6.43;3.05;;;;;;;17.82;100.00;94531.47;10449144;28;20279;-75
2021/07/03 23:03:49;;;;;;;3.95;3.08;;;;;;;17.86;100.00;94526.19;10449490;28;20410;-74
2021/07/03 23:08:50;;;;;;;3.63;3.20;;;;;;;17.82;100.00;94528.75;10449634;28;20033;-75
2021/07/03 23:13:50;;;;;;;5.17;3.17;;;;;;;17.97;100.00;94523.94;10447683;28;20098;-75